This is the latest recevied weather packets stored in our database for station/object JH1LWU-13. If no packets are shown the sender has not sent any weather packets the latest 1 day(s).
| Time | Temp. | Humidity | Pressure | Rain* | Wind** | Luminosity | Snow |
|---|---|---|---|---|---|---|---|
| 1778083546 | 17.22° C | 77% | 1014 hPa | 0 mm | - | - | - |
| 1778079944 | 17.22° C | 78% | 1012 hPa | 0 mm | - | - | - |
| 1778074541 | 17.22° C | 78% | 1015 hPa | 0 mm | - | - | - |
| 1778069138 | 16.67° C | 78% | 1014 hPa | 0 mm | - | - | - |
| 1778067337 | 16.67° C | 77% | 1015 hPa | 0 mm | - | - | - |
| 1778065536 | 17.22° C | 75% | 1014 hPa | 0 mm | - | - | - |
| 1778063735 | 17.78° C | 70% | 1015 hPa | 0 mm | - | - | - |
| 1778061934 | 17.78° C | 69% | 1014 hPa | 0 mm | - | - | - |
| 1778060133 | 18.33° C | 63% | 1015 hPa | 0 mm | - | - | - |
| 1778056531 | 18.89° C | 62% | 1014 hPa | 0 mm | - | - | - |
| 1778054730 | 18.89° C | 58% | 1015 hPa | 0 mm | - | - | - |
| 1778052929 | 19.44° C | 59% | 1015 hPa | 0 mm | - | - | - |
| 1778051128 | 20° C | 55% | 1015 hPa | 0 mm | - | - | - |
| 1778047526 | 20° C | 55% | 1016 hPa | 0 mm | - | - | - |
| 1778045725 | 20° C | 53% | 1016 hPa | 0 mm | - | - | - |
| 1778043924 | 20° C | 54% | 1016 hPa | 0 mm | - | - | - |
| 1778042123 | 20° C | 51% | 1016 hPa | 0 mm | - | - | - |
| 1778040322 | 20° C | 50% | 1016 hPa | 0 mm | - | - | - |
| 1778038521 | 20.56° C | 48% | 1016 hPa | 0 mm | - | - | - |
| 1778036720 | 20.56° C | 50% | 1017 hPa | 0 mm | - | - | - |
| 1778034919 | 20.56° C | 49% | 1018 hPa | 0 mm | - | - | - |
| 1778033118 | 20° C | 52% | 1018 hPa | 0 mm | - | - | - |
| 1778031317 | 21.11° C | 47% | 1018 hPa | 0 mm | - | - | - |
| 1778029516 | 20° C | 45% | 1017 hPa | 0 mm | - | - | - |
| 1778027715 | 17.78° C | 48% | 1017 hPa | 0 mm | - | - | - |
* Rain latest hour (hover to see other rain measurements)
** Current wind speed in m/s (hover to see current wind gust speed)